Time;durP1;ratioP1;P1;durP2;ratioP2;P2;SDS_P1;SDS_P2;PMS_P1;PMS_P2;Temp;Humidity;BMP_temperature;BMP_pressure;BME280_temperature;BME280_humidity;BME280_pressure;Samples;Min_cycle;Max_cycle;Signal;HPM_P1;HPM_P2
2021/09/02 00:01:52;;;;;;;18.00;13.80;;;16.30;99.90;;;;;;6183897;23;20892;-86
2021/09/02 00:04:23;;;;;;;18.93;14.50;;;16.30;99.90;;;;;;6180776;23;20424;-85
2021/09/02 00:06:50;;;;;;;17.93;14.13;;;16.20;99.90;;;;;;6179084;23;20489;-86
2021/09/02 00:09:16;;;;;;;17.00;13.47;;;16.30;99.90;;;;;;6180491;23;20442;-86
2021/09/02 00:11:43;;;;;;;19.33;15.20;;;16.20;99.90;;;;;;6179977;23;20492;-87
2021/09/02 00:14:10;;;;;;;17.93;14.60;;;16.30;99.90;;;;;;6182342;23;20489;-86
2021/09/02 00:16:37;;;;;;;21.00;16.83;;;16.30;99.90;;;;;;6183143;23;20402;-89
2021/09/02 00:19:04;;;;;;;20.10;16.30;;;16.30;99.90;;;;;;6185839;23;20437;-87
2021/09/02 00:21:31;;;;;;;18.90;14.43;;;16.30;99.90;;;;;;6186631;23;20406;-86
2021/09/02 00:23:58;;;;;;;20.63;14.80;;;16.30;99.90;;;;;;6188814;23;20414;-86
2021/09/02 00:26:28;;;;;;;21.30;16.90;;;16.30;99.90;;;;;;6184813;23;20413;-87
2021/09/02 00:28:55;;;;;;;22.00;15.03;;;16.40;99.90;;;;;;6184395;23;20465;-85
2021/09/02 00:31:22;;;;;;;21.60;17.60;;;16.30;99.90;;;;;;6186650;23;20402;-87
2021/09/02 00:33:49;;;;;;;22.33;16.60;;;16.40;99.90;;;;;;6192657;23;20406;-88
2021/09/02 00:36:16;;;;;;;21.00;16.40;;;16.40;99.90;;;;;;6204921;23;20406;-88
2021/09/02 00:38:43;;;;;;;25.30;17.47;;;16.80;99.90;;;;;;6204993;23;20441;-89
2021/09/02 00:41:10;;;;;;;21.67;15.90;;;16.70;99.90;;;;;;6204620;23;20398;-88
2021/09/02 00:43:41;;;;;;;22.27;16.37;;;16.80;99.90;;;;;;6202925;23;20409;-89
2021/09/02 00:46:15;;;;;;;22.47;17.50;;;17.10;99.90;;;;;;6206202;23;20394;-87
2021/09/02 00:48:49;;;;;;;25.83;18.10;;;17.20;99.90;;;;;;6203155;23;20458;-85
2021/09/02 00:51:18;;;;;;;26.90;19.60;;;17.30;99.90;;;;;;6202864;23;20401;-88
2021/09/02 00:53:46;;;;;;;24.90;18.97;;;17.20;99.90;;;;;;6196567;23;20414;-86
2021/09/02 00:56:13;;;;;;;29.47;19.97;;;17.20;99.90;;;;;;6184514;23;20433;-86
2021/09/02 00:58:41;;;;;;;27.77;19.27;;;17.00;99.90;;;;;;6182104;23;21016;-87
2021/09/02 01:01:09;;;;;;;22.03;17.43;;;16.80;99.90;;;;;;6181371;23;20402;-87
2021/09/02 01:03:37;;;;;;;24.30;16.73;;;16.60;99.90;;;;;;6181227;23;20406;-88
2021/09/02 01:06:04;;;;;;;24.93;17.17;;;16.40;99.90;;;;;;6182613;23;20418;-86
2021/09/02 01:08:31;;;;;;;24.70;17.87;;;16.40;99.90;;;;;;6183064;23;20450;-86
2021/09/02 01:10:58;;;;;;;21.30;17.00;;;16.40;99.90;;;;;;6183768;23;20913;-86
2021/09/02 01:13:25;;;;;;;21.40;16.43;;;16.40;99.90;;;;;;6183555;23;20406;-89
2021/09/02 01:15:53;;;;;;;20.30;15.10;;;16.40;99.90;;;;;;6199611;23;20839;-87
2021/09/02 01:18:21;;;;;;;19.50;14.50;;;16.30;99.90;;;;;;6181540;23;20434;-87
2021/09/02 01:20:48;;;;;;;20.80;15.20;;;16.50;99.90;;;;;;6184193;23;20421;-87
2021/09/02 01:23:19;;;;;;;18.60;15.03;;;16.40;99.90;;;;;;6184700;23;20410;-85
2021/09/02 01:25:46;;;;;;;18.70;14.47;;;16.40;99.90;;;;;;6187393;23;20410;-86
2021/09/02 01:28:14;;;;;;;19.77;15.40;;;16.40;99.90;;;;;;6192495;23;20487;-86
2021/09/02 01:30:42;;;;;;;18.27;15.23;;;16.40;99.90;;;;;;6201799;23;20445;-88
2021/09/02 01:33:14;;;;;;;19.67;14.60;;;16.50;99.90;;;;;;6196660;23;20897;-86
2021/09/02 01:35:41;;;;;;;21.63;15.40;;;16.50;99.90;;;;;;6184263;23;20409;-87
2021/09/02 01:38:09;;;;;;;20.73;15.43;;;16.50;99.90;;;;;;6187282;23;20437;-86
2021/09/02 01:40:40;;;;;;;16.63;14.20;;;16.40;99.90;;;;;;6188590;23;20420;-87
2021/09/02 01:43:08;;;;;;;18.77;15.03;;;16.40;99.90;;;;;;6186721;23;20398;-86
2021/09/02 01:45:36;;;;;;;18.53;14.67;;;16.50;99.90;;;;;;6185642;23;20410;-88
2021/09/02 01:48:04;;;;;;;20.10;14.90;;;16.60;99.90;;;;;;6188165;23;20469;-86
2021/09/02 01:50:34;;;;;;;20.70;15.73;;;16.70;99.90;;;;;;6201748;23;20446;-90
2021/09/02 01:53:06;;;;;;;20.57;15.07;;;16.80;99.90;;;;;;6201110;23;20401;-88
2021/09/02 01:55:34;;;;;;;21.90;15.00;;;16.70;99.90;;;;;;6201665;23;20441;-89
2021/09/02 01:58:01;;;;;;;19.73;15.07;;;16.70;99.90;;;;;;6200091;23;20461;-87
2021/09/02 02:00:27;;;;;;;22.93;16.03;;;16.90;99.90;;;;;;6192511;23;20421;-87
2021/09/02 02:02:54;;;;;;;19.47;15.43;;;16.80;99.90;;;;;;6184884;23;20409;-87
2021/09/02 02:05:23;;;;;;;19.30;14.30;;;17.00;99.90;;;;;;6185790;23;20414;-87
2021/09/02 02:07:50;;;;;;;19.00;14.90;;;16.80;99.90;;;;;;6194059;23;20410;-87
2021/09/02 02:10:22;;;;;;;20.20;15.00;;;16.60;99.90;;;;;;6201623;23;20433;-86
2021/09/02 02:12:49;;;;;;;17.10;14.00;;;16.60;99.90;;;;;;6203689;23;20445;-87
2021/09/02 02:15:15;;;;;;;19.30;13.90;;;16.60;99.90;;;;;;6204167;23;20401;-89
2021/09/02 02:17:42;;;;;;;20.20;14.40;;;16.40;99.90;;;;;;6202416;23;20490;-86
2021/09/02 02:20:10;;;;;;;21.23;14.03;;;16.50;99.90;;;;;;6201650;23;20433;-88
2021/09/02 02:22:38;;;;;;;15.53;12.70;;;16.40;99.90;;;;;;6197513;23;20418;-88
2021/09/02 02:25:06;;;;;;;19.87;14.70;;;16.50;99.90;;;;;;6181311;23;20425;-87
2021/09/02 02:27:33;;;;;;;19.83;14.30;;;16.60;99.90;;;;;;6180553;23;20441;-88
2021/09/02 02:30:00;;;;;;;18.13;14.00;;;16.60;99.90;;;;;;6180560;23;20977;-88
2021/09/02 02:32:27;;;;;;;16.80;12.60;;;16.60;99.90;;;;;;6177699;23;20394;-88
2021/09/02 02:34:53;;;;;;;21.37;13.70;;;16.60;99.90;;;;;;6179003;23;20406;-87
2021/09/02 02:37:20;;;;;;;19.93;13.50;;;16.50;99.90;;;;;;6180074;23;20426;-88
2021/09/02 02:39:47;;;;;;;19.57;13.63;;;16.60;99.90;;;;;;6180309;23;20426;-89
2021/09/02 02:42:14;;;;;;;17.97;13.43;;;16.60;99.90;;;;;;6178397;23;20410;-87
2021/09/02 02:44:41;;;;;;;20.60;13.50;;;16.70;99.90;;;;;;6181678;23;20497;-88
2021/09/02 02:47:08;;;;;;;15.50;13.40;;;16.60;99.90;;;;;;6177525;23;20440;-88
2021/09/02 02:49:36;;;;;;;15.70;12.30;;;16.60;99.90;;;;;;6177963;23;20441;-89
2021/09/02 02:52:04;;;;;;;16.87;12.77;;;16.50;99.90;;;;;;6180037;23;20946;-88
2021/09/02 02:54:31;;;;;;;19.17;12.57;;;16.40;99.90;;;;;;6188220;23;21151;-85
2021/09/02 02:56:58;;;;;;;16.93;12.77;;;16.30;99.90;;;;;;6183163;23;20410;-85
2021/09/02 02:59:25;;;;;;;18.97;13.23;;;16.30;99.90;;;;;;6181849;23;20756;-88
2021/09/02 03:01:52;;;;;;;19.13;13.00;;;16.40;99.90;;;;;;6181297;23;20811;-86
2021/09/02 03:04:19;;;;;;;16.70;12.40;;;16.60;99.90;;;;;;6182934;23;20418;-86
2021/09/02 03:06:46;;;;;;;18.50;13.90;;;16.50;99.90;;;;;;6183238;23;20410;-85
2021/09/02 03:09:13;;;;;;;19.60;12.43;;;16.40;99.90;;;;;;6180389;23;20987;-87
2021/09/02 03:11:39;;;;;;;15.93;12.73;;;16.50;99.90;;;;;;6180492;23;20410;-88
2021/09/02 03:14:06;;;;;;;17.83;12.60;;;16.50;99.90;;;;;;6174940;23;20513;-87
2021/09/02 03:16:33;;;;;;;17.00;12.53;;;16.30;99.90;;;;;;6176287;23;20410;-86
2021/09/02 03:18:59;;;;;;;20.00;14.13;;;16.50;99.90;;;;;;6177559;23;20505;-87
2021/09/02 03:21:26;;;;;;;16.50;12.50;;;16.40;99.90;;;;;;6179099;23;20414;-86
2021/09/02 03:23:53;;;;;;;19.13;13.33;;;16.30;99.90;;;;;;6178626;23;20425;-86
2021/09/02 03:26:20;;;;;;;18.37;12.53;;;16.50;99.90;;;;;;6178257;23;20420;-86
2021/09/02 03:28:47;;;;;;;16.33;12.20;;;16.50;99.90;;;;;;6178939;23;20440;-85
2021/09/02 03:31:14;;;;;;;17.00;12.20;;;16.60;99.90;;;;;;6179242;23;20409;-88
2021/09/02 03:33:40;;;;;;;16.40;11.97;;;16.40;99.90;;;;;;6180074;23;20505;-87
2021/09/02 03:36:07;;;;;;;19.23;13.00;;;16.40;99.90;;;;;;6178277;23;20417;-88
2021/09/02 03:38:34;;;;;;;17.53;13.63;;;16.30;99.90;;;;;;6177008;23;20438;-85
2021/09/02 03:41:03;;;;;;;14.67;11.90;;;16.40;99.90;;;;;;6184725;23;20410;-86
2021/09/02 03:43:30;;;;;;;18.70;13.03;;;16.20;99.90;;;;;;6182483;23;20417;-87
2021/09/02 03:45:56;;;;;;;14.30;11.47;;;16.20;99.90;;;;;;6193293;23;20420;-85
2021/09/02 03:48:23;;;;;;;15.43;12.43;;;16.30;99.90;;;;;;6200799;23;20509;-89
2021/09/02 03:50:50;;;;;;;16.17;12.73;;;16.30;99.90;;;;;;6198488;23;20456;-87
2021/09/02 03:53:17;;;;;;;17.80;12.10;;;16.30;99.90;;;;;;6189091;23;21079;-86
2021/09/02 03:55:44;;;;;;;17.70;12.57;;;16.40;99.90;;;;;;6198890;23;20426;-86
2021/09/02 03:58:10;;;;;;;15.10;12.27;;;16.20;99.90;;;;;;6194542;23;20489;-88
2021/09/02 04:00:37;;;;;;;16.00;11.70;;;16.10;99.90;;;;;;6189296;23;20428;-86
2021/09/02 04:03:04;;;;;;;17.43;12.40;;;16.00;99.90;;;;;;6196062;23;20402;-88
2021/09/02 04:05:31;;;;;;;19.03;11.63;;;16.20;99.90;;;;;;6186759;23;20445;-87
2021/09/02 04:07:58;;;;;;;16.27;12.03;;;16.20;99.90;;;;;;6186348;23;20529;-86
2021/09/02 04:10:25;;;;;;;14.80;11.77;;;16.20;99.90;;;;;;6185641;23;20441;-87
2021/09/02 04:12:52;;;;;;;19.30;13.53;;;16.10;99.90;;;;;;6186419;23;20505;-87
2021/09/02 04:15:19;;;;;;;18.30;14.17;;;16.00;99.90;;;;;;6188159;23;20752;-88
2021/09/02 04:17:45;;;;;;;14.93;12.50;;;16.20;99.90;;;;;;6186203;23;20434;-87
2021/09/02 04:20:12;;;;;;;17.30;13.10;;;16.10;99.90;;;;;;6187516;23;20402;-86
2021/09/02 04:22:39;;;;;;;18.40;13.60;;;16.10;99.90;;;;;;6183406;23;20409;-86
2021/09/02 04:25:07;;;;;;;16.70;13.50;;;16.10;99.90;;;;;;6184399;23;20428;-85
2021/09/02 04:27:34;;;;;;;19.60;14.40;;;16.00;99.90;;;;;;6184097;23;20450;-86
2021/09/02 04:30:01;;;;;;;22.23;15.10;;;15.90;99.90;;;;;;6186845;23;20453;-87
2021/09/02 04:32:28;;;;;;;18.03;14.23;;;16.00;99.90;;;;;;6184979;23;20474;-87
2021/09/02 04:34:59;;;;;;;16.43;11.93;;;15.90;99.90;;;;;;6184782;23;21371;-87
2021/09/02 04:37:26;;;;;;;22.27;13.40;;;15.80;99.90;;;;;;6180112;23;20460;-87
2021/09/02 04:39:53;;;;;;;20.80;14.10;;;15.70;99.90;;;;;;6183467;23;20481;-87
2021/09/02 04:42:20;;;;;;;20.83;13.40;;;15.60;99.90;;;;;;6186852;23;20413;-87
2021/09/02 04:44:59;;;;;;;18.70;14.70;;;15.60;99.90;;;;;;6183829;23;20428;-86
2021/09/02 04:47:27;;;;;;;18.10;13.10;;;15.60;99.90;;;;;;6185530;23;20444;-88
2021/09/02 04:49:55;;;;;;;21.63;14.20;;;15.40;99.90;;;;;;6184309;23;20477;-87
2021/09/02 04:52:22;;;;;;;18.33;12.63;;;15.50;99.90;;;;;;6187067;23;20432;-85
2021/09/02 04:54:49;;;;;;;21.90;14.13;;;15.40;99.90;;;;;;6184937;23;20510;-87
2021/09/02 04:57:19;;;;;;;20.60;13.60;;;15.40;99.90;;;;;;6185568;23;20495;-85
2021/09/02 04:59:46;;;;;;;18.27;13.20;;;15.40;99.90;;;;;;6184877;23;20410;-87
2021/09/02 05:02:14;;;;;;;17.70;12.80;;;15.30;99.90;;;;;;6183135;23;20757;-86
2021/09/02 05:04:41;;;;;;;20.40;14.07;;;15.40;99.90;;;;;;6182872;23;20497;-88
2021/09/02 05:07:08;;;;;;;19.03;12.73;;;15.30;99.90;;;;;;6183843;23;20444;-87
2021/09/02 05:09:37;;;;;;;22.90;13.73;;;15.20;99.90;;;;;;6184898;23;20437;-88
2021/09/02 05:12:13;;;;;;;17.93;13.37;;;15.20;99.90;;;;;;6183562;23;20460;-85
2021/09/02 05:14:40;;;;;;;16.00;12.80;;;15.20;99.90;;;;;;6184172;23;20417;-87
2021/09/02 05:17:08;;;;;;;18.30;13.20;;;15.20;99.90;;;;;;6184848;23;20537;-86
2021/09/02 05:19:35;;;;;;;20.43;13.20;;;15.10;99.90;;;;;;6179964;23;20429;-87
2021/09/02 05:22:02;;;;;;;22.63;13.90;;;15.00;99.90;;;;;;6182444;23;20414;-87
2021/09/02 05:24:30;;;;;;;19.37;13.07;;;15.10;99.90;;;;;;6181956;23;20425;-88
2021/09/02 05:26:57;;;;;;;22.40;13.20;;;15.10;99.90;;;;;;6178871;23;20421;-87
2021/09/02 05:29:23;;;;;;;22.57;14.33;;;15.30;99.90;;;;;;6179472;23;20532;-87
2021/09/02 05:31:50;;;;;;;23.13;13.97;;;15.30;99.90;;;;;;6180046;23;20621;-86
2021/09/02 05:34:17;;;;;;;24.50;14.53;;;15.20;99.90;;;;;;6181595;23;20708;-88
2021/09/02 05:36:44;;;;;;;20.90;13.63;;;15.30;99.90;;;;;;6180331;23;20414;-86
2021/09/02 05:39:10;;;;;;;18.00;13.50;;;15.20;99.90;;;;;;6180364;23;20481;-88
2021/09/02 05:41:37;;;;;;;22.07;13.87;;;15.20;99.90;;;;;;6179352;23;20726;-86
2021/09/02 05:44:06;;;;;;;21.73;14.17;;;15.20;99.90;;;;;;6179824;23;20501;-87
2021/09/02 05:46:33;;;;;;;18.83;13.67;;;15.20;99.90;;;;;;6179804;23;20424;-87
2021/09/02 05:49:00;;;;;;;16.77;14.90;;;15.20;99.90;;;;;;6179360;23;20922;-87
2021/09/02 05:51:27;;;;;;;17.73;14.17;;;15.20;99.90;;;;;;6179637;23;20442;-85
2021/09/02 05:53:53;;;;;;;21.60;13.40;;;15.40;99.90;;;;;;6183435;23;21260;-88
2021/09/02 05:56:20;;;;;;;16.67;12.83;;;15.30;99.90;;;;;;6180992;23;20438;-87
2021/09/02 05:58:47;;;;;;;19.70;13.50;;;15.20;99.90;;;;;;6183009;23;20426;-85
2021/09/02 06:01:15;;;;;;;20.07;13.23;;;15.60;99.90;;;;;;6186412;23;20416;-86
2021/09/02 06:03:43;;;;;;;23.60;14.00;;;15.80;99.90;;;;;;6185842;23;20418;-84
2021/09/02 06:06:10;;;;;;;18.47;12.60;;;15.80;99.90;;;;;;6183629;23;20465;-86
2021/09/02 06:08:37;;;;;;;17.60;13.00;;;15.80;99.90;;;;;;6184442;23;20430;-85
2021/09/02 06:11:05;;;;;;;16.70;12.10;;;16.70;99.90;;;;;;6201362;23;20468;-85
2021/09/02 06:13:33;;;;;;;20.30;12.80;;;18.30;99.90;;;;;;6203458;23;20394;-88
2021/09/02 06:16:01;;;;;;;17.40;12.80;;;19.90;99.90;;;;;;6201543;23;20428;-85
2021/09/02 06:18:28;;;;;;;15.50;11.80;;;21.30;97.20;;;;;;6186605;23;20433;-83
2021/09/02 06:20:55;;;;;;;20.37;12.73;;;22.20;94.30;;;;;;6183986;23;20885;-88
2021/09/02 06:23:22;;;;;;;19.40;12.57;;;23.10;92.20;;;;;;6185404;23;20420;-86
2021/09/02 06:25:49;;;;;;;13.90;12.27;;;23.40;90.90;;;;;;6181845;23;20489;-85
2021/09/02 06:28:15;;;;;;;17.47;11.87;;;23.80;89.60;;;;;;6181811;23;20418;-85
2021/09/02 06:30:42;;;;;;;14.27;11.80;;;24.00;87.80;;;;;;6183042;23;20787;-87
2021/09/02 06:33:10;;;;;;;14.30;11.87;;;24.20;86.50;;;;;;6184596;23;20436;-89
2021/09/02 06:35:37;;;;;;;14.87;11.63;;;24.50;85.20;;;;;;6185022;23;20896;-90
2021/09/02 06:38:04;;;;;;;15.73;11.23;;;25.00;83.10;;;;;;6182710;23;20430;-87
2021/09/02 06:40:31;;;;;;;13.87;11.33;;;25.70;79.60;;;;;;6180651;23;20481;-84
2021/09/02 06:42:59;;;;;;;18.83;13.67;;;25.80;78.80;;;;;;6180129;23;20501;-85
2021/09/02 06:45:26;;;;;;;15.00;11.73;;;26.20;76.00;;;;;;6182593;23;20417;-86
2021/09/02 06:47:53;;;;;;;14.60;11.23;;;26.30;74.90;;;;;;6181576;23;20438;-87
2021/09/02 06:50:20;;;;;;;16.37;12.63;;;26.40;73.40;;;;;;6181158;23;20524;-87
2021/09/02 06:52:47;;;;;;;16.10;12.30;;;26.60;73.10;;;;;;6180556;23;20410;-85
2021/09/02 06:55:14;;;;;;;20.37;13.20;;;26.90;70.90;;;;;;6181336;23;20417;-85
2021/09/02 06:57:41;;;;;;;14.33;11.77;;;26.60;71.20;;;;;;6179918;23;20430;-85
2021/09/02 07:00:09;;;;;;;12.80;11.33;;;26.90;70.20;;;;;;6183272;23;20420;-88
2021/09/02 07:02:36;;;;;;;15.93;12.70;;;26.70;69.40;;;;;;6184569;23;20418;-88
2021/09/02 07:05:05;;;;;;;19.80;13.73;;;24.90;73.00;;;;;;6180855;23;20757;-84
2021/09/02 07:07:33;;;;;;;18.10;13.90;;;23.90;78.70;;;;;;6179636;23;20437;-87
2021/09/02 07:10:00;;;;;;;19.97;15.17;;;23.00;81.30;;;;;;6186280;23;20445;-86
2021/09/02 07:12:27;;;;;;;20.33;15.80;;;22.40;85.20;;;;;;6182163;23;20477;-89
2021/09/02 07:14:55;;;;;;;21.73;16.60;;;22.10;88.10;;;;;;6179828;23;20422;-87
2021/09/02 07:17:22;;;;;;;24.53;15.50;;;22.40;88.60;;;;;;6181623;23;20430;-85
2021/09/02 07:19:49;;;;;;;25.17;18.53;;;22.30;88.80;;;;;;6179847;23;20414;-87
2021/09/02 07:22:15;;;;;;;22.83;16.47;;;22.60;88.40;;;;;;6179849;23;20412;-86
2021/09/02 07:24:42;;;;;;;23.03;16.83;;;22.20;87.30;;;;;;6179666;23;20398;-87
2021/09/02 07:27:09;;;;;;;26.33;19.17;;;21.60;90.20;;;;;;6180670;23;20429;-87
2021/09/02 07:29:35;;;;;;;23.73;17.70;;;21.30;91.30;;;;;;6181738;23;20414;-87
2021/09/02 07:32:02;;;;;;;22.93;17.43;;;21.10;91.90;;;;;;6182018;23;20405;-86
2021/09/02 07:34:29;;;;;;;26.23;17.63;;;21.30;92.20;;;;;;6181657;23;20402;-86
2021/09/02 07:36:57;;;;;;;26.33;19.33;;;21.30;91.30;;;;;;6179228;23;20408;-89
2021/09/02 07:39:24;;;;;;;24.37;18.30;;;21.20;92.20;;;;;;6178042;23;20485;-87
2021/09/02 07:41:51;;;;;;;24.70;18.93;;;20.90;92.10;;;;;;6178899;23;20421;-87
2021/09/02 07:44:17;;;;;;;27.40;18.97;;;20.50;92.40;;;;;;6180869;23;20946;-85
2021/09/02 07:46:44;;;;;;;28.77;20.57;;;19.80;94.30;;;;;;6180101;23;20625;-85
2021/09/02 07:49:11;;;;;;;29.37;21.77;;;18.90;96.20;;;;;;6180369;23;20434;-87
2021/09/02 07:51:38;;;;;;;30.73;21.10;;;18.10;99.10;;;;;;6179541;23;20449;-86
2021/09/02 07:54:05;;;;;;;29.33;20.67;;;17.60;99.90;;;;;;6178866;23;20413;-88
2021/09/02 07:56:31;;;;;;;27.87;19.00;;;17.00;99.90;;;;;;6180712;23;20429;-85
2021/09/02 07:58:58;;;;;;;35.73;23.50;;;16.70;99.90;;;;;;6177088;23;20422;-84
2021/09/02 08:01:25;;;;;;;36.67;23.10;;;16.80;99.90;;;;;;6182490;23;20417;-86
2021/09/02 08:03:51;;;;;;;34.10;22.50;;;16.80;99.90;;;;;;6180745;23;20500;-85
2021/09/02 08:06:19;;;;;;;33.57;23.07;;;17.10;99.90;;;;;;6179930;23;20870;-85
2021/09/02 08:08:46;;;;;;;33.53;22.07;;;17.30;99.90;;;;;;6178521;23;20449;-85
2021/09/02 08:11:14;;;;;;;32.30;21.70;;;18.00;99.90;;;;;;6181966;23;20445;-85
2021/09/02 08:13:41;;;;;;;31.37;20.50;;;19.30;99.70;;;;;;6179636;23;20441;-87
2021/09/02 08:16:08;;;;;;;27.20;19.07;;;20.40;97.40;;;;;;6195103;23;20727;-87
2021/09/02 08:18:34;;;;;;;25.60;18.77;;;21.60;95.00;;;;;;6183179;23;20444;-87
2021/09/02 08:21:01;;;;;;;25.93;18.00;;;23.50;91.90;;;;;;6181951;23;20409;-86
2021/09/02 08:23:28;;;;;;;25.40;18.80;;;24.90;86.40;;;;;;6179055;23;20441;-88
2021/09/02 08:25:55;;;;;;;23.43;17.30;;;25.40;81.60;;;;;;6181270;23;20644;-88
2021/09/02 08:28:22;;;;;;;22.80;17.57;;;25.90;78.80;;;;;;6178131;23;20521;-85
2021/09/02 08:30:48;;;;;;;24.27;17.13;;;26.20;75.40;;;;;;6178398;23;20440;-90
2021/09/02 08:33:15;;;;;;;21.60;17.70;;;26.30;74.90;;;;;;6179564;23;20460;-86
2021/09/02 08:35:42;;;;;;;23.20;17.70;;;26.80;72.20;;;;;;6179404;23;20715;-87
2021/09/02 08:38:09;;;;;;;18.67;16.40;;;27.00;70.80;;;;;;6193028;23;20486;-86
2021/09/02 08:40:39;;;;;;;20.57;17.50;;;28.00;67.90;;;;;;6176690;23;20889;-84
2021/09/02 08:43:06;;;;;;;16.90;15.13;;;28.60;64.00;;;;;;6178195;23;20488;-84
2021/09/02 08:45:36;;;;;;;17.57;15.60;;;28.70;61.70;;;;;;6177630;23;20517;-84
2021/09/02 08:48:04;;;;;;;18.90;15.17;;;28.50;60.50;;;;;;6177928;23;20504;-86
2021/09/02 08:50:35;;;;;;;17.50;15.70;;;28.80;59.90;;;;;;6192024;23;20476;-87
2021/09/02 08:53:03;;;;;;;17.63;14.90;;;28.00;60.80;;;;;;6189835;23;20386;-89
2021/09/02 08:55:30;;;;;;;17.30;15.50;;;27.80;60.60;;;;;;6181716;23;20525;-89
2021/09/02 08:57:57;;;;;;;16.97;15.17;;;28.20;61.30;;;;;;6176066;23;20537;-87
2021/09/02 09:00:25;;;;;;;18.23;16.40;;;29.90;57.50;;;;;;6176075;23;20579;-88
2021/09/02 09:03:04;;;;;;;18.00;16.30;;;29.80;56.10;;;;;;6177323;23;20988;-87
2021/09/02 09:05:33;;;;;;;17.67;15.67;;;29.60;56.60;;;;;;6177146;23;20493;-88
2021/09/02 09:08:01;;;;;;;17.97;15.90;;;29.30;56.90;;;;;;6175887;23;21286;-87
2021/09/02 09:10:29;;;;;;;19.47;15.50;;;29.70;56.20;;;;;;6176612;23;20453;-87
2021/09/02 09:12:57;;;;;;;19.93;15.47;;;28.90;56.20;;;;;;6182835;23;20506;-87
2021/09/02 09:15:35;;;;;;;18.13;16.33;;;28.80;58.00;;;;;;6178473;23;21023;-88
2021/09/02 09:18:14;;;;;;;18.73;16.27;;;29.40;56.80;;;;;;6176717;23;20457;-88
2021/09/02 09:20:41;;;;;;;17.27;15.40;;;30.20;55.20;;;;;;6177033;23;20509;-88
2021/09/02 09:23:07;;;;;;;20.43;15.33;;;30.20;54.10;;;;;;6178449;23;21055;-85
2021/09/02 09:25:34;;;;;;;18.83;16.90;;;30.40;54.10;;;;;;6179278;23;20424;-88
2021/09/02 09:28:02;;;;;;;17.07;15.37;;;30.80;52.90;;;;;;6176780;23;20913;-88
2021/09/02 09:30:34;;;;;;;16.67;14.90;;;30.50;52.60;;;;;;6179587;23;21234;-87
2021/09/02 09:33:03;;;;;;;14.97;13.33;;;30.20;53.70;;;;;;6180498;23;20410;-88
2021/09/02 09:35:31;;;;;;;17.50;14.23;;;29.80;53.80;;;;;;6178208;23;20413;-85
2021/09/02 09:38:07;;;;;;;13.33;12.10;;;29.60;54.10;;;;;;6179573;23;20428;-85
2021/09/02 09:40:40;;;;;;;17.73;14.43;;;30.00;54.10;;;;;;6177615;23;20475;-87
2021/09/02 09:43:11;;;;;;;15.87;12.90;;;30.20;53.00;;;;;;6177125;23;20406;-85
2021/09/02 09:45:51;;;;;;;14.30;12.90;;;30.10;53.90;;;;;;6182112;23;20409;-87
2021/09/02 09:48:36;;;;;;;14.67;13.00;;;29.10;54.40;;;;;;6180835;23;20435;-87
2021/09/02 09:51:18;;;;;;;14.80;12.47;;;29.70;53.90;;;;;;6176466;23;20776;-85
2021/09/02 09:53:49;;;;;;;15.50;13.30;;;29.80;53.50;;;;;;6177972;23;20395;-86
2021/09/02 09:56:19;;;;;;;14.83;11.93;;;29.90;52.90;;;;;;6179034;23;20418;-88
2021/09/02 09:58:47;;;;;;;14.87;12.00;;;29.40;53.80;;;;;;6180067;23;20426;-87
2021/09/02 10:01:14;;;;;;;14.67;13.33;;;29.60;53.90;;;;;;6176494;23;20422;-86
2021/09/02 10:03:43;;;;;;;15.03;13.53;;;29.40;53.80;;;;;;6180377;23;20496;-86
2021/09/02 10:06:12;;;;;;;14.13;12.53;;;28.80;55.30;;;;;;6185890;23;20406;-89
2021/09/02 10:08:40;;;;;;;22.23;14.90;;;29.00;55.70;;;;;;6199342;23;20482;-87
2021/09/02 10:11:11;;;;;;;13.73;12.20;;;29.30;54.90;;;;;;6202770;23;20440;-89
2021/09/02 10:13:41;;;;;;;13.50;12.10;;;29.80;54.10;;;;;;6201009;23;20421;-87
2021/09/02 10:16:08;;;;;;;13.57;12.13;;;30.30;53.40;;;;;;6201732;23;20425;-88
2021/09/02 10:18:46;;;;;;;15.80;13.43;;;31.10;51.20;;;;;;6188566;23;20512;-88
2021/09/02 10:21:15;;;;;;;13.20;11.90;;;30.20;51.90;;;;;;6184991;23;20399;-88
2021/09/02 10:23:42;;;;;;;14.93;13.00;;;29.90;53.00;;;;;;6184198;23;20466;-88
2021/09/02 10:26:31;;;;;;;13.73;12.10;;;30.10;52.40;;;;;;6185145;23;20417;-87
2021/09/02 10:28:57;;;;;;;14.30;12.90;;;30.10;53.00;;;;;;6184538;23;20430;-88
2021/09/02 10:31:24;;;;;;;14.30;12.90;;;30.30;52.30;;;;;;6185413;23;20456;-88
2021/09/02 10:33:51;;;;;;;13.57;12.17;;;30.00;52.50;;;;;;6182725;23;21037;-89
2021/09/02 10:36:19;;;;;;;14.10;10.97;;;30.10;52.30;;;;;;6182759;23;20477;-88
2021/09/02 10:39:11;;;;;;;12.37;11.00;;;30.00;52.60;;;;;;6191549;23;20426;-90
2021/09/02 10:41:49;;;;;;;12.00;10.80;;;29.70;53.10;;;;;;6196969;23;20423;-88
2021/09/02 10:44:18;;;;;;;12.03;10.83;;;30.10;52.70;;;;;;6194354;23;20394;-85
2021/09/02 10:46:53;;;;;;;15.63;11.20;;;30.20;52.10;;;;;;6195932;23;20410;-87
2021/09/02 10:49:28;;;;;;;13.43;11.63;;;29.90;52.20;;;;;;6186902;23;20441;-85
2021/09/02 10:52:22;;;;;;;15.07;11.90;;;29.40;53.20;;;;;;6193837;23;20432;-88
2021/09/02 10:54:49;;;;;;;12.07;10.83;;;28.90;54.00;;;;;;6201271;23;20409;-88
2021/09/02 10:57:16;;;;;;;11.60;10.40;;;29.20;54.40;;;;;;6198035;23;20450;-89
2021/09/02 10:59:45;;;;;;;11.93;10.77;;;29.50;53.30;;;;;;6190676;23;21192;-88
2021/09/02 11:02:18;;;;;;;12.13;10.97;;;29.30;53.20;;;;;;6186657;23;20429;-87
2021/09/02 11:04:46;;;;;;;12.83;11.30;;;29.30;53.70;;;;;;6186197;23;21235;-89
2021/09/02 11:07:13;;;;;;;10.90;9.80;;;29.20;54.00;;;;;;6184344;23;20436;-89
2021/09/02 11:09:41;;;;;;;10.63;9.50;;;28.90;54.70;;;;;;6182187;23;20422;-88
2021/09/02 11:12:12;;;;;;;9.73;8.87;;;28.70;55.30;;;;;;6185434;23;20444;-89
2021/09/02 11:14:45;;;;;;;10.40;9.40;;;29.20;54.60;;;;;;6183616;23;20517;-88
2021/09/02 11:17:13;;;;;;;10.33;9.43;;;29.40;53.30;;;;;;6189485;23;20430;-89
2021/09/02 11:19:42;;;;;;;10.37;9.37;;;28.50;54.70;;;;;;6192811;23;20416;-90
2021/09/02 11:22:17;;;;;;;10.80;8.77;;;28.80;55.40;;;;;;6191305;23;20414;-87
2021/09/02 11:24:45;;;;;;;9.43;8.63;;;29.60;53.90;;;;;;6189736;23;20405;-88
2021/09/02 11:27:25;;;;;;;11.70;7.80;;;30.20;53.00;;;;;;6195610;23;20529;-89
2021/09/02 11:29:52;;;;;;;10.20;8.37;;;29.80;52.90;;;;;;6183629;23;20428;-86
2021/09/02 11:32:26;;;;;;;9.13;6.77;;;29.50;52.30;;;;;;6185942;23;20514;-89
2021/09/02 11:35:18;;;;;;;7.50;6.80;;;29.60;52.50;;;;;;6183533;23;20430;-90
2021/09/02 11:37:58;;;;;;;7.33;6.63;;;29.20;53.20;;;;;;6196715;23;20433;-87
2021/09/02 11:40:36;;;;;;;7.57;6.87;;;29.20;52.70;;;;;;6200302;23;21158;-90
2021/09/02 11:43:15;;;;;;;8.40;7.20;;;29.10;53.50;;;;;;6199043;23;20405;-90
2021/09/02 11:45:50;;;;;;;7.83;7.13;;;28.40;54.40;;;;;;6200257;23;20480;-87
2021/09/02 11:48:17;;;;;;;9.07;7.00;;;28.60;54.80;;;;;;6198394;23;20421;-86
2021/09/02 11:50:59;;;;;;;8.87;7.00;;;29.30;53.60;;;;;;6192323;23;20852;-86
2021/09/02 11:53:32;;;;;;;7.30;6.60;;;30.00;51.80;;;;;;6183758;23;20465;-88
2021/09/02 11:56:20;;;;;;;6.03;5.47;;;29.00;53.00;;;;;;6181298;23;20730;-86
2021/09/02 11:58:57;;;;;;;6.80;5.83;;;28.40;54.60;;;;;;6179742;23;20943;-88
2021/09/02 12:01:25;;;;;;;6.60;5.30;;;29.30;53.20;;;;;;6179960;23;20480;-87
2021/09/02 12:03:52;;;;;;;6.40;5.60;;;29.10;53.00;;;;;;6179041;23;20428;-89
2021/09/02 12:06:26;;;;;;;6.77;6.13;;;29.30;53.10;;;;;;6176428;23;20440;-87
2021/09/02 12:08:56;;;;;;;6.07;5.47;;;29.50;52.50;;;;;;6178492;23;20529;-87
2021/09/02 12:11:23;;;;;;;5.73;5.27;;;29.70;52.30;;;;;;6179758;23;20437;-86
2021/09/02 12:13:55;;;;;;;7.87;6.17;;;29.90;51.30;;;;;;6180924;23;20417;-89
2021/09/02 12:16:32;;;;;;;5.87;5.37;;;29.20;51.90;;;;;;6181483;23;20432;-88
2021/09/02 12:19:13;;;;;;;6.07;5.53;;;29.00;52.20;;;;;;6183078;23;20429;-87
2021/09/02 12:21:45;;;;;;;5.80;5.30;;;28.60;53.40;;;;;;6182134;23;20988;-88
2021/09/02 12:24:15;;;;;;;6.30;5.70;;;29.10;52.70;;;;;;6180735;23;20440;-88
2021/09/02 12:26:49;;;;;;;5.23;4.73;;;29.60;52.90;;;;;;6181169;23;20530;-86
2021/09/02 12:29:18;;;;;;;8.47;6.17;;;29.70;51.90;;;;;;6182433;23;20413;-86
2021/09/02 12:31:47;;;;;;;5.97;5.47;;;30.20;50.70;;;;;;6182677;23;20535;-87
2021/09/02 12:34:32;;;;;;;5.60;5.10;;;30.20;50.70;;;;;;6182728;23;20472;-86
2021/09/02 12:37:05;;;;;;;9.43;5.57;;;29.90;51.60;;;;;;6181860;23;20999;-86